Time;durP1;ratioP1;P1;durP2;ratioP2;P2;SDS_P1;SDS_P2;PMS_P1;PMS_P2;Temp;Humidity;BMP_temperature;BMP_pressure;BME280_temperature;BME280_humidity;BME280_pressure;Samples;Min_cycle;Max_cycle;Signal;HPM_P1;HPM_P2
2020/12/26 00:00:19;;;;;;;3.72;1.77;;;7.20;54.90;;;;;;5055397;28;20122;-72
2020/12/26 00:02:46;;;;;;;1.88;0.95;;;7.20;54.70;;;;;;5045652;28;20035;-72
2020/12/26 00:05:12;;;;;;;2.60;1.30;;;7.20;55.10;;;;;;5054741;28;20025;-72
2020/12/26 00:07:38;;;;;;;2.83;1.33;;;7.20;55.30;;;;;;5058538;28;20020;-72
2020/12/26 00:10:04;;;;;;;12.90;5.53;;;7.20;55.50;;;;;;5061525;28;20029;-72
2020/12/26 00:12:29;;;;;;;5.05;2.88;;;7.20;55.50;;;;;;5054749;28;20555;-72
2020/12/26 00:14:55;;;;;;;11.85;4.75;;;7.20;55.70;;;;;;5049620;28;20139;-72
2020/12/26 00:17:23;;;;;;;24.40;11.15;;;7.20;55.70;;;;;;5054705;28;20025;-72
2020/12/26 00:19:49;;;;;;;10.50;4.70;;;7.20;55.90;;;;;;5054456;28;20025;-72
2020/12/26 00:22:14;;;;;;;5.70;3.13;;;7.20;56.10;;;;;;5038244;28;20121;-72
2020/12/26 00:24:40;;;;;;;5.72;3.00;;;7.10;56.20;;;;;;5054297;28;20089;-72
2020/12/26 00:27:06;;;;;;;7.82;3.40;;;7.10;56.30;;;;;;5053176;28;20029;-72
2020/12/26 00:29:32;;;;;;;5.82;2.67;;;7.10;56.50;;;;;;5054450;28;20056;-72
2020/12/26 00:31:58;;;;;;;11.20;5.20;;;7.10;56.70;;;;;;5057105;28;20447;-72
2020/12/26 00:34:24;;;;;;;12.23;5.82;;;7.10;56.80;;;;;;5039954;28;20049;-72
2020/12/26 00:36:50;;;;;;;14.00;6.60;;;7.00;56.90;;;;;;5052927;28;20116;-72
2020/12/26 00:39:15;;;;;;;11.80;5.85;;;7.00;57.00;;;;;;5054225;28;20025;-72
2020/12/26 00:41:45;;;;;;;8.60;4.18;;;7.00;57.10;;;;;;5054150;28;20461;-72
2020/12/26 00:44:11;;;;;;;8.10;3.70;;;7.00;57.20;;;;;;5036572;28;20074;-72
2020/12/26 00:46:37;;;;;;;10.57;4.45;;;7.00;57.20;;;;;;5053983;28;20115;-72
2020/12/26 00:49:03;;;;;;;27.60;11.40;;;7.00;57.20;;;;;;5053992;28;20056;-72
2020/12/26 00:51:29;;;;;;;19.27;9.15;;;7.00;57.20;;;;;;5059958;28;20020;-72
2020/12/26 00:53:54;;;;;;;11.75;5.40;;;7.00;57.20;;;;;;5055997;28;20514;-72
2020/12/26 00:56:20;;;;;;;6.60;3.30;;;7.00;57.30;;;;;;5053948;28;20113;-72
2020/12/26 00:58:46;;;;;;;4.50;2.60;;;7.00;57.20;;;;;;5044443;28;20030;-72
2020/12/26 01:01:15;;;;;;;4.97;2.22;;;7.00;57.10;;;;;;5045344;28;20028;-72
2020/12/26 01:03:41;;;;;;;2.88;1.83;;;7.00;57.10;;;;;;5038497;28;20463;-72
2020/12/26 01:06:15;;;;;;;4.03;1.85;;;6.90;56.70;;;;;;5050157;28;20470;-72
2020/12/26 01:08:41;;;;;;;2.97;1.60;;;6.90;56.40;;;;;;5041139;28;20032;-72
2020/12/26 01:11:07;;;;;;;3.50;1.98;;;6.90;56.60;;;;;;5042852;28;20041;-72
2020/12/26 01:13:33;;;;;;;2.90;1.58;;;6.90;56.20;;;;;;5048091;28;20385;-72
2020/12/26 01:15:58;;;;;;;2.58;1.40;;;6.80;55.90;;;;;;5048528;28;20024;-72
2020/12/26 01:18:24;;;;;;;1.70;0.93;;;6.80;55.80;;;;;;5053270;28;20425;-72
2020/12/26 01:20:50;;;;;;;1.65;1.10;;;6.80;55.90;;;;;;5052354;28;20032;-72
2020/12/26 01:23:16;;;;;;;2.55;1.20;;;6.80;55.80;;;;;;5052592;28;20031;-72
2020/12/26 01:25:41;;;;;;;2.67;1.20;;;6.80;55.70;;;;;;5053499;28;20040;-72
2020/12/26 01:28:07;;;;;;;2.67;1.60;;;6.80;56.60;;;;;;5053736;28;20478;-72
2020/12/26 01:30:33;;;;;;;3.17;1.55;;;6.80;56.30;;;;;;5053964;28;20036;-71
2020/12/26 01:32:58;;;;;;;3.50;1.60;;;6.80;56.50;;;;;;5053542;28;20481;-71
2020/12/26 01:35:24;;;;;;;2.90;1.60;;;6.80;56.50;;;;;;5053621;28;20025;-72
2020/12/26 01:37:50;;;;;;;2.85;1.35;;;6.80;56.40;;;;;;5053882;28;20110;-72
2020/12/26 01:40:15;;;;;;;2.72;1.63;;;6.80;56.50;;;;;;5052288;28;20032;-72
2020/12/26 01:42:41;;;;;;;2.42;1.25;;;6.80;56.60;;;;;;5053513;28;20029;-72
2020/12/26 01:45:07;;;;;;;2.65;1.65;;;6.80;56.70;;;;;;5053691;28;20436;-72
2020/12/26 01:47:33;;;;;;;1.63;1.30;;;6.80;56.70;;;;;;5053376;28;20032;-72
2020/12/26 01:50:00;;;;;;;3.78;1.63;;;6.80;56.80;;;;;;5053882;28;20017;-72
2020/12/26 01:52:26;;;;;;;2.10;1.42;;;6.80;57.00;;;;;;5053298;28;20035;-72
2020/12/26 01:54:53;;;;;;;2.72;1.30;;;6.70;56.70;;;;;;5053226;28;20479;-72
2020/12/26 01:57:22;;;;;;;2.08;1.10;;;6.70;56.50;;;;;;5053293;28;20060;-72
2020/12/26 01:59:48;;;;;;;2.25;1.17;;;6.70;56.00;;;;;;5053250;28;20020;-72
2020/12/26 02:02:14;;;;;;;2.72;1.60;;;6.70;55.90;;;;;;5053235;28;20087;-72
2020/12/26 02:04:40;;;;;;;2.83;1.27;;;6.60;55.90;;;;;;5053085;28;20521;-72
2020/12/26 02:07:06;;;;;;;2.78;1.60;;;6.60;55.70;;;;;;5053747;28;20025;-72
2020/12/26 02:09:33;;;;;;;3.25;1.55;;;6.60;55.70;;;;;;5053709;28;20479;-71
2020/12/26 02:11:59;;;;;;;3.55;1.58;;;6.60;55.90;;;;;;5057307;28;20100;-72
2020/12/26 02:14:24;;;;;;;2.25;1.23;;;6.60;56.00;;;;;;5057534;28;20048;-72
2020/12/26 02:16:52;;;;;;;3.15;1.35;;;6.60;56.00;;;;;;5057249;28;20025;-72
2020/12/26 02:19:20;;;;;;;2.60;1.38;;;6.60;56.10;;;;;;5057415;28;20028;-72
2020/12/26 02:21:46;;;;;;;2.00;1.30;;;6.60;56.40;;;;;;5057096;28;20425;-72
2020/12/26 02:24:12;;;;;;;1.75;1.20;;;6.60;56.60;;;;;;5055663;28;20017;-73
2020/12/26 02:26:38;;;;;;;1.75;1.00;;;6.60;56.70;;;;;;5056942;28;20537;-72
2020/12/26 02:29:05;;;;;;;3.25;1.20;;;6.60;56.90;;;;;;5056958;28;20033;-72
2020/12/26 02:31:32;;;;;;;3.03;1.42;;;6.60;56.90;;;;;;5055563;28;20028;-72
2020/12/26 02:33:58;;;;;;;2.13;1.27;;;6.60;57.00;;;;;;5056906;28;20036;-71
2020/12/26 02:36:24;;;;;;;1.10;0.90;;;6.60;56.90;;;;;;5056861;28;20029;-72
2020/12/26 02:38:50;;;;;;;3.47;1.58;;;6.60;57.00;;;;;;5057652;28;20463;-72
2020/12/26 02:41:16;;;;;;;1.95;1.15;;;6.60;57.00;;;;;;5055540;28;20421;-72
2020/12/26 02:43:42;;;;;;;1.83;1.10;;;6.60;56.90;;;;;;5056656;28;20029;-72
2020/12/26 02:46:08;;;;;;;1.92;0.90;;;6.60;56.90;;;;;;5057162;28;20107;-72
2020/12/26 02:48:34;;;;;;;1.77;1.40;;;6.60;56.90;;;;;;5056680;28;20032;-72
2020/12/26 02:51:00;;;;;;;1.45;1.00;;;6.60;56.90;;;;;;5056635;28;20096;-72
2020/12/26 02:53:26;;;;;;;2.70;1.20;;;6.60;57.00;;;;;;5049709;28;20029;-72
2020/12/26 02:55:52;;;;;;;4.43;1.20;;;6.60;57.00;;;;;;5056433;28;20025;-72
2020/12/26 02:58:19;;;;;;;1.80;1.00;;;6.60;57.10;;;;;;5056714;28;20056;-72
2020/12/26 03:00:45;;;;;;;1.70;1.10;;;6.60;57.00;;;;;;5056372;28;20538;-72
2020/12/26 03:03:11;;;;;;;2.38;1.45;;;6.60;57.00;;;;;;5055118;28;20028;-72
2020/12/26 03:05:37;;;;;;;1.70;1.10;;;6.60;56.90;;;;;;5055104;28;20561;-72
2020/12/26 03:08:03;;;;;;;2.75;1.10;;;6.60;57.00;;;;;;5056292;28;20481;-72
2020/12/26 03:10:29;;;;;;;2.97;1.27;;;6.60;57.10;;;;;;5054992;28;20387;-72
2020/12/26 03:12:55;;;;;;;1.50;1.13;;;6.60;57.20;;;;;;5056194;28;20020;-72
2020/12/26 03:15:21;;;;;;;4.30;1.30;;;6.60;57.20;;;;;;5056150;28;20063;-72
2020/12/26 03:17:48;;;;;;;1.60;0.93;;;6.50;57.20;;;;;;5054774;28;20529;-72
2020/12/26 03:20:13;;;;;;;2.35;1.10;;;6.50;57.30;;;;;;5056495;28;20402;-72
2020/12/26 03:22:39;;;;;;;2.70;1.27;;;6.50;57.40;;;;;;5054821;28;20028;-72
2020/12/26 03:25:05;;;;;;;2.22;1.10;;;6.50;57.50;;;;;;5055773;28;20045;-72
2020/12/26 03:27:31;;;;;;;2.20;1.20;;;6.50;57.50;;;;;;5056003;28;20021;-72
2020/12/26 03:29:56;;;;;;;1.67;1.13;;;6.50;57.50;;;;;;5056203;28;20025;-72
2020/12/26 03:32:22;;;;;;;2.38;1.58;;;6.50;57.50;;;;;;5055875;28;20095;-72
2020/12/26 03:34:48;;;;;;;2.33;1.23;;;6.50;57.50;;;;;;5056296;28;20025;-72
2020/12/26 03:37:14;;;;;;;2.08;1.10;;;6.50;57.50;;;;;;5055201;28;20032;-72
2020/12/26 03:39:40;;;;;;;1.83;1.20;;;6.50;57.50;;;;;;5056850;28;20025;-72
2020/12/26 03:42:11;;;;;;;1.88;1.10;;;6.50;57.60;;;;;;5055226;28;20025;-72
2020/12/26 03:44:38;;;;;;;3.35;0.80;;;6.50;57.60;;;;;;5055325;28;20032;-72
2020/12/26 03:47:08;;;;;;;1.73;1.02;;;6.50;57.60;;;;;;5056850;28;20082;-71
2020/12/26 03:49:35;;;;;;;1.88;1.13;;;6.50;57.60;;;;;;5056504;28;20100;-72
2020/12/26 03:52:01;;;;;;;3.40;0.90;;;6.50;57.60;;;;;;5056597;28;20065;-71
2020/12/26 03:54:27;;;;;;;1.80;0.88;;;6.50;57.60;;;;;;5055442;28;20070;-72
2020/12/26 03:56:53;;;;;;;2.15;0.98;;;6.50;57.70;;;;;;5055466;28;20021;-72
2020/12/26 03:59:19;;;;;;;1.77;0.90;;;6.50;57.70;;;;;;5055438;28;20382;-72
2020/12/26 04:01:45;;;;;;;1.25;0.80;;;6.60;57.70;;;;;;5054096;28;20025;-72
2020/12/26 04:04:13;;;;;;;1.13;0.80;;;6.50;57.50;;;;;;5055595;28;20021;-72
2020/12/26 04:06:42;;;;;;;0.95;0.77;;;6.60;57.40;;;;;;5055197;28;20029;-72
2020/12/26 04:09:09;;;;;;;0.93;0.73;;;6.50;57.30;;;;;;5055214;28;20025;-72
2020/12/26 04:11:35;;;;;;;1.75;1.13;;;6.60;57.30;;;;;;5055181;28;20025;-72
2020/12/26 04:14:01;;;;;;;1.17;0.93;;;6.50;57.30;;;;;;5055089;28;20079;-72
2020/12/26 04:16:27;;;;;;;4.35;1.10;;;6.50;57.00;;;;;;5053774;28;20025;-72
2020/12/26 04:18:52;;;;;;;2.65;1.38;;;6.50;56.90;;;;;;5055325;28;20049;-72
2020/12/26 04:21:22;;;;;;;1.90;1.20;;;6.50;56.90;;;;;;5055234;28;20150;-72
2020/12/26 04:23:52;;;;;;;3.00;1.10;;;6.50;56.80;;;;;;5054873;28;20478;-72
2020/12/26 04:26:18;;;;;;;2.83;1.23;;;6.50;56.90;;;;;;5054831;28;20048;-72
2020/12/26 04:28:44;;;;;;;1.38;1.08;;;6.50;56.80;;;;;;5053560;28;20025;-72
2020/12/26 04:31:10;;;;;;;2.00;1.33;;;6.40;56.80;;;;;;5054980;28;20100;-72
2020/12/26 04:33:36;;;;;;;4.07;1.20;;;6.40;56.80;;;;;;5054113;28;20478;-72
2020/12/26 04:36:02;;;;;;;2.28;1.38;;;6.40;57.00;;;;;;5054675;28;20105;-72
2020/12/26 04:38:28;;;;;;;1.23;1.05;;;6.40;57.00;;;;;;5054623;28;20159;-72
2020/12/26 04:40:54;;;;;;;1.77;1.17;;;6.40;57.10;;;;;;5052877;28;20017;-72
2020/12/26 04:43:19;;;;;;;2.30;1.45;;;6.40;57.10;;;;;;5035214;28;20090;-72
2020/12/26 04:45:47;;;;;;;4.72;2.05;;;6.40;57.10;;;;;;5033290;28;20025;-72
2020/12/26 04:48:15;;;;;;;2.42;1.50;;;6.40;57.20;;;;;;5033642;28;20021;-72
2020/12/26 04:50:48;;;;;;;2.85;1.80;;;6.50;57.30;;;;;;5034288;28;20024;-72
2020/12/26 04:53:16;;;;;;;6.97;2.08;;;6.50;57.30;;;;;;5033026;28;20100;-72
2020/12/26 04:55:49;;;;;;;4.38;2.38;;;6.50;57.30;;;;;;5033204;28;20514;-72
2020/12/26 04:58:18;;;;;;;8.15;3.05;;;6.50;58.00;;;;;;5034430;28;20161;-72
2020/12/26 05:00:45;;;;;;;4.53;3.25;;;6.50;57.50;;;;;;5034331;28;20414;-72
2020/12/26 05:03:13;;;;;;;6.82;4.60;;;6.50;57.60;;;;;;5034249;28;20032;-72
2020/12/26 05:05:41;;;;;;;8.07;4.82;;;6.50;57.60;;;;;;5034151;28;20048;-72
2020/12/26 05:08:12;;;;;;;8.00;5.00;;;6.50;57.60;;;;;;5034192;28;20069;-72
2020/12/26 05:10:39;;;;;;;7.55;4.78;;;6.50;57.70;;;;;;5032901;28;20032;-72
2020/12/26 05:13:07;;;;;;;8.60;5.88;;;6.50;57.70;;;;;;5032837;28;20072;-72
2020/12/26 05:15:34;;;;;;;7.63;5.05;;;6.50;57.80;;;;;;5034301;28;20037;-72
2020/12/26 05:18:00;;;;;;;7.63;5.60;;;6.60;57.90;;;;;;5037937;28;20025;-72
2020/12/26 05:20:27;;;;;;;7.38;5.35;;;6.50;57.70;;;;;;5052765;28;20029;-72
2020/12/26 05:23:15;;;;;;;9.63;5.72;;;6.50;57.70;;;;;;5052412;28;20021;-72
2020/12/26 05:25:49;;;;;;;7.85;5.13;;;6.50;57.70;;;;;;5053000;28;20507;-72
2020/12/26 05:28:20;;;;;;;8.35;5.82;;;6.50;57.80;;;;;;5053402;28;20012;-72
2020/12/26 05:30:48;;;;;;;7.55;5.22;;;6.60;57.90;;;;;;5052485;28;20107;-72
2020/12/26 05:33:15;;;;;;;7.60;5.25;;;6.60;57.90;;;;;;5053675;28;20029;-72
2020/12/26 05:35:42;;;;;;;7.40;5.07;;;6.60;57.80;;;;;;5053656;28;20033;-72
2020/12/26 05:38:11;;;;;;;5.78;4.28;;;6.60;57.80;;;;;;5053599;28;20043;-72
2020/12/26 05:40:42;;;;;;;8.63;6.30;;;6.60;57.80;;;;;;5053584;28;20025;-72
2020/12/26 05:43:09;;;;;;;7.45;5.53;;;6.60;57.60;;;;;;5053519;28;20123;-72
2020/12/26 05:45:44;;;;;;;6.20;4.57;;;6.60;57.60;;;;;;5052536;28;20382;-72
2020/12/26 05:48:15;;;;;;;8.55;5.45;;;6.60;58.20;;;;;;5053510;28;20038;-72
2020/12/26 05:50:42;;;;;;;7.20;5.00;;;6.60;57.70;;;;;;5054022;28;20017;-72
2020/12/26 05:53:11;;;;;;;6.55;4.80;;;6.60;57.70;;;;;;5052183;28;20497;-72
2020/12/26 05:55:44;;;;;;;8.32;5.35;;;6.60;57.60;;;;;;5053394;28;20040;-72
2020/12/26 05:58:11;;;;;;;5.88;4.35;;;6.60;57.50;;;;;;5053737;28;20103;-72
2020/12/26 06:00:42;;;;;;;7.13;4.68;;;6.60;57.60;;;;;;5053346;28;20393;-72
2020/12/26 06:03:30;;;;;;;7.50;5.40;;;6.60;57.50;;;;;;5053623;28;20033;-72
2020/12/26 06:05:58;;;;;;;10.95;6.43;;;6.60;57.20;;;;;;5051999;28;20052;-72
2020/12/26 06:08:26;;;;;;;7.93;5.18;;;6.60;57.20;;;;;;5053310;28;20384;-72
2020/12/26 06:10:53;;;;;;;7.90;5.45;;;6.60;57.20;;;;;;5052019;28;20032;-72
2020/12/26 06:13:21;;;;;;;8.57;4.60;;;6.60;57.10;;;;;;5053204;28;20032;-72
2020/12/26 06:16:10;;;;;;;6.35;4.30;;;6.50;57.20;;;;;;5053537;28;20078;-72
2020/12/26 06:18:41;;;;;;;5.95;4.50;;;6.50;57.10;;;;;;5050225;28;20521;-72
2020/12/26 06:21:08;;;;;;;4.90;3.92;;;6.50;56.80;;;;;;5053204;28;20032;-72
2020/12/26 06:23:38;;;;;;;4.70;3.30;;;6.50;57.30;;;;;;5051933;28;20028;-72
2020/12/26 06:26:05;;;;;;;6.15;4.03;;;6.50;56.30;;;;;;5052781;28;20041;-72
2020/12/26 06:28:32;;;;;;;4.68;3.15;;;6.50;56.10;;;;;;5053379;28;20021;-72
2020/12/26 06:31:08;;;;;;;5.90;3.88;;;6.50;56.30;;;;;;5053010;28;20063;-72
2020/12/26 06:33:45;;;;;;;5.40;3.60;;;6.50;56.20;;;;;;5053084;28;20023;-72
2020/12/26 06:36:13;;;;;;;5.65;3.53;;;6.50;56.40;;;;;;5053047;28;20029;-72
2020/12/26 06:38:40;;;;;;;4.63;3.30;;;6.50;56.40;;;;;;5053246;28;20036;-72
2020/12/26 06:41:07;;;;;;;5.85;4.00;;;6.50;56.40;;;;;;5052970;28;20029;-72
2020/12/26 06:43:50;;;;;;;5.53;3.55;;;6.60;56.30;;;;;;5052985;28;20027;-72
2020/12/26 06:46:16;;;;;;;4.50;3.00;;;6.60;56.20;;;;;;5051604;28;20382;-71
2020/12/26 06:48:43;;;;;;;6.50;3.50;;;6.50;56.10;;;;;;5052954;28;20048;-72
2020/12/26 06:51:40;;;;;;;6.15;3.92;;;6.60;56.00;;;;;;5052978;28;20021;-72
2020/12/26 06:54:12;;;;;;;6.35;3.63;;;6.50;55.80;;;;;;5052977;28;20115;-72
2020/12/26 06:56:38;;;;;;;5.90;3.88;;;6.60;56.20;;;;;;5053871;28;20033;-72
2020/12/26 06:59:11;;;;;;;3.80;2.78;;;6.60;56.10;;;;;;5056552;28;20028;-72
2020/12/26 07:01:38;;;;;;;4.87;2.93;;;6.60;55.90;;;;;;5056912;28;20492;-72
2020/12/26 07:04:07;;;;;;;3.95;2.72;;;6.60;55.90;;;;;;5056498;28;20029;-72
2020/12/26 07:06:40;;;;;;;6.78;3.50;;;6.60;56.00;;;;;;5056393;28;20055;-72
2020/12/26 07:09:07;;;;;;;6.57;3.55;;;6.60;55.60;;;;;;5056791;28;20025;-72
2020/12/26 07:11:51;;;;;;;6.07;3.08;;;6.60;55.20;;;;;;5055097;28;20025;-72
2020/12/26 07:14:29;;;;;;;;;;;6.60;55.30;;;;;;5056747;28;20028;-72
2020/12/26 07:16:56;;;;;;;5.55;3.70;;;6.60;55.70;;;;;;5056187;28;19911;-72
2020/12/26 07:19:27;;;;;;;6.13;3.60;;;6.60;55.60;;;;;;5056452;28;20028;-72
2020/12/26 07:21:57;;;;;;;7.70;4.72;;;6.50;55.40;;;;;;5054924;28;20026;-72
2020/12/26 07:24:24;;;;;;;5.32;3.33;;;6.50;55.50;;;;;;5055852;28;20021;-72
2020/12/26 07:26:51;;;;;;;3.22;2.55;;;6.50;55.40;;;;;;5055902;28;20031;-72
2020/12/26 07:29:25;;;;;;;3.38;2.42;;;6.50;55.20;;;;;;5056008;28;20053;-72
2020/12/26 07:31:50;;;;;;;7.22;2.45;;;6.50;54.80;;;;;;5056045;28;20021;-72
2020/12/26 07:34:43;;;;;;;3.90;2.40;;;6.50;55.10;;;;;;5055935;28;20360;-72
2020/12/26 07:37:09;;;;;;;3.38;2.03;;;6.50;54.30;;;;;;5055488;28;20068;-72
2020/12/26 07:39:44;;;;;;;3.78;2.30;;;6.50;53.80;;;;;;5056141;28;20056;-72
2020/12/26 07:42:15;;;;;;;3.75;2.13;;;6.50;53.40;;;;;;5054464;28;20021;-72
2020/12/26 07:44:40;;;;;;;4.32;2.17;;;6.50;53.80;;;;;;5055027;28;20096;-72
2020/12/26 07:47:09;;;;;;;2.97;1.70;;;6.50;54.00;;;;;;5054379;28;20124;-72
2020/12/26 07:49:34;;;;;;;5.43;1.55;;;6.60;53.80;;;;;;5055596;28;20510;-72
2020/12/26 07:52:07;;;;;;;4.22;2.30;;;6.60;53.70;;;;;;5055634;28;20029;-72
2020/12/26 07:54:34;;;;;;;4.07;1.65;;;6.60;53.60;;;;;;5070580;28;20051;-72
2020/12/26 07:57:00;;;;;;;3.20;2.00;;;6.60;53.50;;;;;;5075507;28;20082;-72
2020/12/26 07:59:26;;;;;;;1.70;1.30;;;6.60;53.50;;;;;;5075809;28;20091;-72
2020/12/26 08:01:53;;;;;;;1.20;1.02;;;6.60;53.30;;;;;;5075512;28;20480;-72
2020/12/26 08:04:19;;;;;;;4.65;1.77;;;6.50;53.10;;;;;;5074079;28;20466;-72
2020/12/26 08:06:46;;;;;;;1.80;1.15;;;6.50;53.30;;;;;;5074825;28;20032;-72
2020/12/26 08:09:14;;;;;;;1.90;1.30;;;6.50;53.10;;;;;;5060708;28;20013;-72
2020/12/26 08:11:41;;;;;;;2.00;1.38;;;6.40;52.70;;;;;;5062973;28;20017;-72
2020/12/26 08:14:06;;;;;;;1.52;1.15;;;6.50;52.40;;;;;;5069290;28;20021;-72
2020/12/26 08:16:33;;;;;;;1.65;1.10;;;6.40;52.10;;;;;;5055066;28;20387;-72
2020/12/26 08:19:01;;;;;;;1.88;0.90;;;6.30;51.30;;;;;;5055067;28;20040;-72
2020/12/26 08:21:27;;;;;;;1.15;0.80;;;6.30;50.90;;;;;;5053714;28;20024;-72
2020/12/26 08:23:56;;;;;;;1.25;0.82;;;6.30;51.10;;;;;;5054822;28;20439;-72
2020/12/26 08:26:24;;;;;;;4.88;1.00;;;6.20;50.50;;;;;;5054616;28;20049;-72
2020/12/26 08:28:52;;;;;;;1.85;1.00;;;6.10;49.90;;;;;;5055028;28;20043;-72
2020/12/26 08:31:23;;;;;;;2.08;1.23;;;6.10;50.00;;;;;;5054831;28;20058;-72
2020/12/26 08:34:12;;;;;;;1.88;1.20;;;6.10;50.50;;;;;;5055039;28;20017;-72
2020/12/26 08:36:44;;;;;;;5.50;1.30;;;6.20;49.80;;;;;;5053204;28;20420;-72
2020/12/26 08:39:10;;;;;;;1.17;0.80;;;6.30;50.30;;;;;;5054687;28;20363;-72
2020/12/26 08:41:45;;;;;;;3.10;1.50;;;6.40;50.70;;;;;;5053500;28;20037;-72
2020/12/26 08:44:12;;;;;;;2.72;1.40;;;6.60;50.80;;;;;;5054572;28;20087;-72
2020/12/26 08:46:46;;;;;;;2.45;1.45;;;6.70;50.70;;;;;;5054443;28;20055;-72
2020/12/26 08:49:12;;;;;;;1.90;1.40;;;6.80;50.00;;;;;;5053763;28;20077;-72
2020/12/26 08:51:40;;;;;;;2.08;1.25;;;6.90;49.50;;;;;;5054426;28;20025;-72
2020/12/26 08:54:15;;;;;;;8.00;1.85;;;7.00;49.20;;;;;;5053153;28;20025;-72
2020/12/26 08:56:41;;;;;;;3.15;1.52;;;7.00;49.20;;;;;;5054397;28;20067;-72
2020/12/26 08:59:07;;;;;;;13.57;1.70;;;7.10;49.10;;;;;;5054238;28;20036;-72
2020/12/26 09:01:34;;;;;;;1.45;1.10;;;7.10;49.00;;;;;;5054385;28;20025;-72
2020/12/26 09:04:00;;;;;;;3.65;1.77;;;7.20;49.30;;;;;;5054187;28;20021;-72
2020/12/26 09:06:34;;;;;;;3.22;1.50;;;7.20;49.30;;;;;;5054090;28;20029;-72
2020/12/26 09:09:20;;;;;;;2.25;1.35;;;7.30;48.90;;;;;;5057955;28;20396;-72
2020/12/26 09:11:47;;;;;;;3.38;1.10;;;7.30;48.30;;;;;;5053991;28;20029;-72
2020/12/26 09:14:20;;;;;;;5.75;1.20;;;7.30;48.60;;;;;;5053976;28;20029;-72
2020/12/26 09:17:00;;;;;;;1.88;1.10;;;7.40;48.70;;;;;;5052548;28;20032;-72
2020/12/26 09:19:26;;;;;;;1.45;1.00;;;7.40;48.20;;;;;;5052569;28;20064;-72
2020/12/26 09:22:06;;;;;;;3.63;1.10;;;7.50;48.40;;;;;;5054087;28;20103;-72
2020/12/26 09:24:31;;;;;;;2.17;1.33;;;7.50;48.40;;;;;;5064420;28;20135;-72
2020/12/26 09:26:57;;;;;;;1.70;1.20;;;7.50;47.80;;;;;;5059928;28;20159;-73
2020/12/26 09:29:24;;;;;;;2.45;1.23;;;7.50;47.50;;;;;;5053722;28;20090;-72
2020/12/26 09:31:51;;;;;;;0.90;0.80;;;7.50;48.00;;;;;;5053769;28;20048;-72
2020/12/26 09:34:19;;;;;;;1.58;0.80;;;7.50;48.00;;;;;;5054983;28;20043;-72
2020/12/26 09:36:46;;;;;;;4.57;1.20;;;7.60;48.40;;;;;;5053864;28;20463;-72
2020/12/26 09:39:12;;;;;;;1.30;0.90;;;7.60;47.90;;;;;;5052256;28;20037;-72
2020/12/26 09:41:49;;;;;;;3.67;1.23;;;7.60;48.20;;;;;;5049327;28;20387;-72
2020/12/26 09:44:15;;;;;;;4.63;1.45;;;7.70;48.10;;;;;;5053588;28;20035;-72
2020/12/26 09:46:42;;;;;;;2.15;1.25;;;7.70;47.90;;;;;;5052180;28;20025;-73
2020/12/26 09:49:08;;;;;;;4.47;1.70;;;7.80;48.10;;;;;;5053489;28;20028;-72
2020/12/26 09:51:34;;;;;;;1.73;1.00;;;7.80;47.50;;;;;;5053343;28;20425;-73
2020/12/26 09:54:00;;;;;;;3.33;1.30;;;7.80;46.60;;;;;;5048029;28;20021;-72
2020/12/26 09:56:26;;;;;;;2.85;1.10;;;7.70;46.20;;;;;;5042619;28;20052;-73
2020/12/26 09:58:53;;;;;;;5.45;1.63;;;7.70;46.50;;;;;;5033435;28;20140;-72
2020/12/26 10:01:20;;;;;;;2.42;1.17;;;7.70;46.30;;;;;;5051263;28;20410;-73
2020/12/26 10:03:48;;;;;;;2.72;1.30;;;7.60;46.20;;;;;;5053343;28;20438;-72
2020/12/26 10:06:19;;;;;;;2.95;1.13;;;7.60;46.40;;;;;;5053191;28;20056;-72
2020/12/26 10:08:46;;;;;;;3.25;1.40;;;7.70;47.30;;;;;;5048329;28;20088;-72
2020/12/26 10:11:13;;;;;;;2.10;1.27;;;7.70;46.30;;;;;;5032126;28;20554;-73
2020/12/26 10:13:40;;;;;;;2.05;1.40;;;7.70;46.70;;;;;;5033834;28;20044;-72
2020/12/26 10:16:06;;;;;;;2.90;1.38;;;7.70;46.10;;;;;;5031985;28;20558;-72
2020/12/26 10:18:31;;;;;;;4.03;1.38;;;7.80;45.10;;;;;;5033318;28;20057;-73
2020/12/26 10:20:57;;;;;;;2.35;1.10;;;7.90;44.40;;;;;;5061548;28;20090;-72
2020/12/26 10:23:24;;;;;;;2.45;1.27;;;8.00;45.70;;;;;;5053315;28;20535;-73
2020/12/26 10:25:50;;;;;;;2.35;1.02;;;8.00;44.80;;;;;;5034629;28;20502;-72
2020/12/26 10:28:17;;;;;;;4.03;1.38;;;8.10;43.90;;;;;;5036775;28;20033;-72
2020/12/26 10:30:43;;;;;;;3.97;1.50;;;8.10;43.90;;;;;;5032719;28;20032;-72
2020/12/26 10:33:09;;;;;;;2.97;1.33;;;8.10;43.40;;;;;;5041389;28;20028;-72
2020/12/26 10:35:35;;;;;;;1.58;0.80;;;8.10;43.20;;;;;;5058149;28;20147;-72
2020/12/26 10:38:00;;;;;;;4.13;1.40;;;8.10;43.60;;;;;;5054546;28;20066;-73
2020/12/26 10:40:26;;;;;;;2.95;1.30;;;8.10;43.20;;;;;;5072331;28;20035;-72
2020/12/26 10:42:52;;;;;;;2.03;1.10;;;8.10;43.30;;;;;;5054743;28;20037;-72
2020/12/26 10:45:17;;;;;;;1.90;1.10;;;8.10;43.40;;;;;;5057001;28;20470;-73
2020/12/26 10:47:43;;;;;;;4.80;1.52;;;8.10;43.40;;;;;;5061476;28;20024;-72
2020/12/26 10:50:09;;;;;;;2.65;1.10;;;8.20;43.00;;;;;;5062094;28;20021;-72
2020/12/26 10:52:35;;;;;;;4.50;1.30;;;8.20;42.50;;;;;;5057100;28;20027;-72
2020/12/26 10:55:00;;;;;;;2.10;0.90;;;8.20;41.80;;;;;;5056314;28;20044;-72
2020/12/26 10:57:26;;;;;;;2.75;0.88;;;8.20;42.20;;;;;;5055295;28;20032;-72
2020/12/26 10:59:53;;;;;;;2.72;0.88;;;8.30;42.30;;;;;;5056374;28;20032;-72
2020/12/26 11:02:18;;;;;;;1.23;0.73;;;8.30;42.80;;;;;;5056558;28;20074;-72
2020/12/26 11:04:44;;;;;;;3.85;1.55;;;8.40;42.20;;;;;;5060855;28;20056;-73
2020/12/26 11:07:10;;;;;;;1.90;0.95;;;8.50;42.30;;;;;;5076339;28;20178;-72
2020/12/26 11:09:36;;;;;;;1.48;0.93;;;8.50;42.30;;;;;;5076245;28;20133;-72
2020/12/26 11:12:01;;;;;;;2.08;1.08;;;8.60;41.80;;;;;;5069690;28;20021;-72
2020/12/26 11:14:27;;;;;;;4.20;0.98;;;8.70;40.60;;;;;;5054826;28;20029;-72
2020/12/26 11:16:54;;;;;;;1.42;0.80;;;8.70;41.10;;;;;;5057472;28;20033;-72
2020/12/26 11:19:20;;;;;;;3.85;1.00;;;8.80;41.70;;;;;;5054518;28;20111;-72
2020/12/26 11:21:53;;;;;;;0.98;0.65;;;8.90;40.80;;;;;;5056056;28;20490;-72
2020/12/26 11:24:20;;;;;;;1.52;0.82;;;9.00;39.40;;;;;;5055870;28;20029;-73
2020/12/26 11:26:46;;;;;;;1.85;0.98;;;9.10;39.20;;;;;;5054775;28;20037;-72
2020/12/26 11:29:12;;;;;;;1.58;0.70;;;9.10;38.20;;;;;;5056472;28;20048;-72
2020/12/26 11:31:37;;;;;;;2.67;1.00;;;9.10;38.00;;;;;;5059784;28;20025;-71
2020/12/26 11:34:03;;;;;;;1.98;0.70;;;9.10;37.70;;;;;;5075276;28;20071;-72
2020/12/26 11:36:30;;;;;;;2.35;0.65;;;9.10;37.80;;;;;;5075892;28;20040;-72
2020/12/26 11:38:57;;;;;;;2.85;0.65;;;9.10;38.30;;;;;;5070073;28;20450;-72
2020/12/26 11:41:25;;;;;;;2.67;0.70;;;9.20;38.80;;;;;;5049596;28;20025;-72
2020/12/26 11:43:51;;;;;;;0.98;0.50;;;9.30;37.30;;;;;;5041554;28;20017;-72
2020/12/26 11:46:17;;;;;;;1.15;0.77;;;9.30;38.30;;;;;;5048730;28;20453;-73
2020/12/26 11:48:43;;;;;;;3.30;0.70;;;9.40;37.90;;;;;;5061267;28;20049;-72
2020/12/26 11:51:10;;;;;;;2.25;0.57;;;9.40;36.90;;;;;;5042464;28;20470;-72
2020/12/26 11:53:36;;;;;;;1.33;0.70;;;9.40;36.30;;;;;;5053893;28;20027;-72
2020/12/26 11:56:10;;;;;;;2.95;0.50;;;9.30;37.00;;;;;;5050557;28;20107;-72
2020/12/26 11:58:36;;;;;;;2.08;0.52;;;9.30;37.00;;;;;;5038572;28;20067;-72
2020/12/26 12:01:04;;;;;;;2.08;0.82;;;9.20;37.30;;;;;;5051952;28;20032;-72
2020/12/26 12:03:29;;;;;;;2.95;0.85;;;9.20;37.70;;;;;;5053161;28;20031;-72
2020/12/26 12:05:55;;;;;;;1.23;0.60;;;9.10;37.10;;;;;;5047871;28;20029;-72
2020/12/26 12:08:21;;;;;;;1.52;0.60;;;9.00;37.20;;;;;;5035237;28;20026;-72
2020/12/26 12:10:47;;;;;;;1.48;0.63;;;8.90;36.50;;;;;;5052059;28;20082;-72
2020/12/26 12:13:12;;;;;;;2.17;0.95;;;8.80;36.90;;;;;;5049199;28;20148;-72
2020/12/26 12:15:39;;;;;;;1.40;0.75;;;8.80;37.10;;;;;;5035040;28;20025;-72
2020/12/26 12:18:06;;;;;;;1.70;0.60;;;8.80;37.70;;;;;;5038657;28;20025;-72
2020/12/26 12:20:32;;;;;;;0.75;0.47;;;8.70;37.60;;;;;;5055982;28;20385;-72
2020/12/26 12:22:58;;;;;;;1.55;0.47;;;8.60;36.80;;;;;;5051722;28;20035;-72
2020/12/26 12:25:25;;;;;;;0.93;0.50;;;8.60;37.30;;;;;;5046767;28;20127;-72
2020/12/26 12:27:50;;;;;;;1.45;0.50;;;8.60;37.10;;;;;;5070055;28;20558;-72
2020/12/26 12:30:16;;;;;;;0.32;0.30;;;8.60;36.80;;;;;;5054813;28;20100;-72
2020/12/26 12:32:42;;;;;;;0.80;0.47;;;8.60;37.20;;;;;;5062115;28;20082;-72
2020/12/26 12:35:08;;;;;;;1.40;0.50;;;8.60;37.00;;;;;;5048126;28;20104;-72
2020/12/26 12:37:34;;;;;;;3.40;0.80;;;8.60;37.20;;;;;;5066370;28;20028;-72
2020/12/26 12:40:00;;;;;;;1.42;0.60;;;8.60;37.60;;;;;;5061409;28;20039;-72
2020/12/26 12:42:29;;;;;;;0.85;0.65;;;8.60;37.30;;;;;;5054280;28;20067;-72
2020/12/26 12:44:56;;;;;;;0.90;0.50;;;8.60;36.80;;;;;;5055912;28;20029;-72
2020/12/26 12:47:26;;;;;;;1.95;0.88;;;8.50;35.90;;;;;;5054668;28;20025;-72
2020/12/26 12:49:52;;;;;;;1.80;1.00;;;8.50;36.30;;;;;;5054608;28;20036;-72
2020/12/26 12:52:18;;;;;;;2.10;0.70;;;8.50;36.60;;;;;;5057633;28;20425;-72
2020/12/26 12:54:44;;;;;;;2.05;0.70;;;8.40;36.30;;;;;;5053900;28;20025;-72
2020/12/26 12:57:10;;;;;;;1.52;0.82;;;8.30;36.90;;;;;;5054193;28;20070;-72
2020/12/26 12:59:36;;;;;;;1.73;0.57;;;8.20;36.30;;;;;;5054336;28;20107;-72